sensor_id;sensor_type;location;lat;lon;timestamp;P1;durP1;ratioP1;P2;durP2;ratioP2
19645;SDS011;9971;52.446;13.452;2023-07-22T00:04:17;3.55;;;3.25;;
19645;SDS011;9971;52.446;13.452;2023-07-22T00:09:20;3.52;;;3.22;;
19645;SDS011;9971;52.446;13.452;2023-07-22T00:14:22;3.55;;;3.00;;
19645;SDS011;9971;52.446;13.452;2023-07-22T00:19:25;3.15;;;2.95;;
19645;SDS011;9971;52.446;13.452;2023-07-22T00:24:27;3.77;;;3.47;;
19645;SDS011;9971;52.446;13.452;2023-07-22T00:29:30;3.30;;;3.00;;
19645;SDS011;9971;52.446;13.452;2023-07-22T00:34:32;2.95;;;2.75;;
19645;SDS011;9971;52.446;13.452;2023-07-22T00:39:35;2.95;;;2.75;;
19645;SDS011;9971;52.446;13.452;2023-07-22T00:44:37;3.30;;;3.10;;
19645;SDS011;9971;52.446;13.452;2023-07-22T00:49:40;3.27;;;3.08;;
19645;SDS011;9971;52.446;13.452;2023-07-22T00:54:42;3.27;;;3.07;;
19645;SDS011;9971;52.446;13.452;2023-07-22T00:59:44;3.40;;;3.10;;
19645;SDS011;9971;52.446;13.452;2023-07-22T01:04:46;3.05;;;2.85;;
19645;SDS011;9971;52.446;13.452;2023-07-22T01:09:48;3.80;;;3.37;;
19645;SDS011;9971;52.446;13.452;2023-07-22T01:14:51;3.30;;;3.10;;
19645;SDS011;9971;52.446;13.452;2023-07-22T01:19:53;2.90;;;2.70;;
19645;SDS011;9971;52.446;13.452;2023-07-22T01:24:55;3.13;;;2.93;;
19645;SDS011;9971;52.446;13.452;2023-07-22T01:29:57;3.43;;;3.23;;
19645;SDS011;9971;52.446;13.452;2023-07-22T01:34:59;3.47;;;3.27;;
19645;SDS011;9971;52.446;13.452;2023-07-22T01:40:02;3.45;;;3.25;;
19645;SDS011;9971;52.446;13.452;2023-07-22T01:45:04;3.40;;;3.20;;
19645;SDS011;9971;52.446;13.452;2023-07-22T01:50:07;3.87;;;3.58;;
19645;SDS011;9971;52.446;13.452;2023-07-22T01:55:10;4.72;;;3.92;;
19645;SDS011;9971;52.446;13.452;2023-07-22T02:00:12;3.92;;;3.62;;
19645;SDS011;9971;52.446;13.452;2023-07-22T02:05:16;4.00;;;3.70;;
19645;SDS011;9971;52.446;13.452;2023-07-22T02:10:18;4.10;;;3.80;;
19645;SDS011;9971;52.446;13.452;2023-07-22T02:15:20;3.65;;;3.35;;
19645;SDS011;9971;52.446;13.452;2023-07-22T02:20:22;3.27;;;3.08;;
19645;SDS011;9971;52.446;13.452;2023-07-22T02:25:25;3.93;;;3.57;;
19645;SDS011;9971;52.446;13.452;2023-07-22T02:30:27;3.67;;;2.92;;
19645;SDS011;9971;52.446;13.452;2023-07-22T02:35:31;3.37;;;3.17;;
19645;SDS011;9971;52.446;13.452;2023-07-22T02:40:34;3.35;;;3.15;;
19645;SDS011;9971;52.446;13.452;2023-07-22T02:45:36;3.60;;;3.35;;
19645;SDS011;9971;52.446;13.452;2023-07-22T02:50:38;3.50;;;3.20;;
19645;SDS011;9971;52.446;13.452;2023-07-22T02:55:40;3.53;;;3.23;;
19645;SDS011;9971;52.446;13.452;2023-07-22T03:00:43;3.77;;;3.47;;
19645;SDS011;9971;52.446;13.452;2023-07-22T03:05:45;3.12;;;2.92;;
19645;SDS011;9971;52.446;13.452;2023-07-22T03:10:47;4.28;;;3.25;;
19645;SDS011;9971;52.446;13.452;2023-07-22T03:15:50;3.70;;;3.40;;
19645;SDS011;9971;52.446;13.452;2023-07-22T03:20:52;3.67;;;3.40;;
19645;SDS011;9971;52.446;13.452;2023-07-22T03:25:55;3.75;;;3.37;;
19645;SDS011;9971;52.446;13.452;2023-07-22T03:30:57;3.40;;;3.10;;
19645;SDS011;9971;52.446;13.452;2023-07-22T03:35:59;3.03;;;2.83;;
19645;SDS011;9971;52.446;13.452;2023-07-22T03:41:01;3.27;;;3.07;;
19645;SDS011;9971;52.446;13.452;2023-07-22T03:46:04;3.50;;;3.22;;
19645;SDS011;9971;52.446;13.452;2023-07-22T03:51:06;4.53;;;3.13;;
19645;SDS011;9971;52.446;13.452;2023-07-22T03:56:08;2.58;;;2.37;;
19645;SDS011;9971;52.446;13.452;2023-07-22T04:01:11;2.85;;;2.42;;
19645;SDS011;9971;52.446;13.452;2023-07-22T04:06:12;2.83;;;2.63;;
19645;SDS011;9971;52.446;13.452;2023-07-22T04:11:15;3.02;;;2.60;;
19645;SDS011;9971;52.446;13.452;2023-07-22T04:16:17;4.00;;;2.40;;
19645;SDS011;9971;52.446;13.452;2023-07-22T04:21:20;2.72;;;2.50;;
19645;SDS011;9971;52.446;13.452;2023-07-22T04:26:22;2.83;;;2.57;;
19645;SDS011;9971;52.446;13.452;2023-07-22T04:31:24;2.75;;;2.55;;
19645;SDS011;9971;52.446;13.452;2023-07-22T04:36:27;3.58;;;2.58;;
19645;SDS011;9971;52.446;13.452;2023-07-22T04:41:29;3.10;;;2.37;;
19645;SDS011;9971;52.446;13.452;2023-07-22T04:46:32;5.53;;;2.70;;
19645;SDS011;9971;52.446;13.452;2023-07-22T04:51:34;2.90;;;2.70;;
19645;SDS011;9971;52.446;13.452;2023-07-22T04:56:37;3.12;;;2.83;;
19645;SDS011;9971;52.446;13.452;2023-07-22T05:01:39;2.73;;;2.53;;
19645;SDS011;9971;52.446;13.452;2023-07-22T05:06:41;3.35;;;3.05;;
19645;SDS011;9971;52.446;13.452;2023-07-22T05:11:44;3.50;;;3.10;;
19645;SDS011;9971;52.446;13.452;2023-07-22T05:16:46;3.15;;;2.92;;
19645;SDS011;9971;52.446;13.452;2023-07-22T05:21:48;3.60;;;3.25;;
19645;SDS011;9971;52.446;13.452;2023-07-22T05:26:51;3.85;;;3.55;;
19645;SDS011;9971;52.446;13.452;2023-07-22T05:31:53;4.83;;;4.43;;
19645;SDS011;9971;52.446;13.452;2023-07-22T05:36:55;4.85;;;4.30;;
19645;SDS011;9971;52.446;13.452;2023-07-22T05:41:58;4.30;;;4.00;;
19645;SDS011;9971;52.446;13.452;2023-07-22T05:47:00;4.80;;;4.40;;
19645;SDS011;9971;52.446;13.452;2023-07-22T05:52:03;5.08;;;4.47;;
19645;SDS011;9971;52.446;13.452;2023-07-22T05:57:06;5.62;;;4.97;;
19645;SDS011;9971;52.446;13.452;2023-07-22T06:02:08;6.37;;;4.40;;
19645;SDS011;9971;52.446;13.452;2023-07-22T06:07:10;5.30;;;4.90;;
19645;SDS011;9971;52.446;13.452;2023-07-22T06:12:12;5.60;;;5.10;;
19645;SDS011;9971;52.446;13.452;2023-07-22T06:17:15;5.30;;;4.80;;
19645;SDS011;9971;52.446;13.452;2023-07-22T06:22:17;4.85;;;4.45;;
19645;SDS011;9971;52.446;13.452;2023-07-22T06:27:19;4.90;;;4.50;;
19645;SDS011;9971;52.446;13.452;2023-07-22T06:32:22;6.55;;;4.55;;
19645;SDS011;9971;52.446;13.452;2023-07-22T06:37:25;4.53;;;4.12;;
19645;SDS011;9971;52.446;13.452;2023-07-22T06:42:27;4.37;;;4.03;;
19645;SDS011;9971;52.446;13.452;2023-07-22T06:47:30;3.90;;;3.50;;
19645;SDS011;9971;52.446;13.452;2023-07-22T06:52:33;4.15;;;3.75;;
19645;SDS011;9971;52.446;13.452;2023-07-22T06:57:35;4.53;;;3.70;;
19645;SDS011;9971;52.446;13.452;2023-07-22T07:02:37;4.53;;;3.63;;
19645;SDS011;9971;52.446;13.452;2023-07-22T07:07:40;5.65;;;3.22;;
19645;SDS011;9971;52.446;13.452;2023-07-22T07:12:43;3.17;;;2.87;;
19645;SDS011;9971;52.446;13.452;2023-07-22T07:17:48;4.37;;;3.00;;
19645;SDS011;9971;52.446;13.452;2023-07-22T07:22:50;3.37;;;3.05;;
19645;SDS011;9971;52.446;13.452;2023-07-22T07:27:52;2.83;;;2.53;;
19645;SDS011;9971;52.446;13.452;2023-07-22T07:32:54;3.20;;;2.98;;
19645;SDS011;9971;52.446;13.452;2023-07-22T07:37:57;6.00;;;2.77;;
19645;SDS011;9971;52.446;13.452;2023-07-22T07:42:59;3.42;;;3.12;;
19645;SDS011;9971;52.446;13.452;2023-07-22T07:48:02;3.83;;;2.72;;
19645;SDS011;9971;52.446;13.452;2023-07-22T07:53:05;2.75;;;2.55;;
19645;SDS011;9971;52.446;13.452;2023-07-22T07:58:07;4.60;;;3.20;;
19645;SDS011;9971;52.446;13.452;2023-07-22T08:03:10;4.95;;;3.27;;
19645;SDS011;9971;52.446;13.452;2023-07-22T08:08:12;3.67;;;2.73;;
19645;SDS011;9971;52.446;13.452;2023-07-22T08:13:14;3.20;;;2.90;;
19645;SDS011;9971;52.446;13.452;2023-07-22T08:18:16;3.40;;;2.87;;
19645;SDS011;9971;52.446;13.452;2023-07-22T08:23:20;3.50;;;2.93;;
19645;SDS011;9971;52.446;13.452;2023-07-22T08:28:22;3.97;;;3.10;;
19645;SDS011;9971;52.446;13.452;2023-07-22T08:33:24;3.10;;;2.80;;
19645;SDS011;9971;52.446;13.452;2023-07-22T08:38:27;3.37;;;3.08;;
19645;SDS011;9971;52.446;13.452;2023-07-22T08:43:30;3.70;;;3.17;;
19645;SDS011;9971;52.446;13.452;2023-07-22T08:48:33;3.22;;;2.95;;
19645;SDS011;9971;52.446;13.452;2023-07-22T08:53:35;3.53;;;3.23;;
19645;SDS011;9971;52.446;13.452;2023-07-22T08:58:42;3.30;;;2.63;;
19645;SDS011;9971;52.446;13.452;2023-07-22T09:03:44;3.47;;;3.17;;
19645;SDS011;9971;52.446;13.452;2023-07-22T09:08:46;3.53;;;3.00;;
19645;SDS011;9971;52.446;13.452;2023-07-22T09:13:51;3.87;;;3.03;;
19645;SDS011;9971;52.446;13.452;2023-07-22T09:18:56;3.43;;;3.13;;
19645;SDS011;9971;52.446;13.452;2023-07-22T09:24:01;3.20;;;2.97;;
19645;SDS011;9971;52.446;13.452;2023-07-22T09:29:04;3.27;;;2.90;;
19645;SDS011;9971;52.446;13.452;2023-07-22T09:34:09;4.03;;;3.12;;
19645;SDS011;9971;52.446;13.452;2023-07-22T09:39:11;4.27;;;3.20;;
19645;SDS011;9971;52.446;13.452;2023-07-22T09:44:14;3.00;;;2.70;;
19645;SDS011;9971;52.446;13.452;2023-07-22T09:49:17;2.70;;;2.50;;
19645;SDS011;9971;52.446;13.452;2023-07-22T09:54:18;2.80;;;2.60;;
19645;SDS011;9971;52.446;13.452;2023-07-22T09:59:20;2.87;;;2.60;;
19645;SDS011;9971;52.446;13.452;2023-07-22T10:04:22;2.40;;;2.20;;
19645;SDS011;9971;52.446;13.452;2023-07-22T10:09:27;2.63;;;2.23;;
19645;SDS011;9971;52.446;13.452;2023-07-22T10:14:29;2.70;;;2.50;;
19645;SDS011;9971;52.446;13.452;2023-07-22T10:19:34;2.80;;;2.60;;
19645;SDS011;9971;52.446;13.452;2023-07-22T10:24:39;3.05;;;2.75;;
19645;SDS011;9971;52.446;13.452;2023-07-22T10:29:41;3.50;;;2.50;;
19645;SDS011;9971;52.446;13.452;2023-07-22T10:34:43;3.20;;;2.80;;
19645;SDS011;9971;52.446;13.452;2023-07-22T10:39:46;2.92;;;2.55;;
19645;SDS011;9971;52.446;13.452;2023-07-22T10:44:48;3.57;;;2.97;;
19645;SDS011;9971;52.446;13.452;2023-07-22T10:49:52;3.20;;;2.87;;
19645;SDS011;9971;52.446;13.452;2023-07-22T10:54:55;2.93;;;2.63;;
19645;SDS011;9971;52.446;13.452;2023-07-22T10:59:57;3.67;;;2.83;;
19645;SDS011;9971;52.446;13.452;2023-07-22T11:04:59;4.57;;;3.33;;
19645;SDS011;9971;52.446;13.452;2023-07-22T11:15:15;3.23;;;2.70;;
19645;SDS011;9971;52.446;13.452;2023-07-22T11:20:17;2.90;;;2.60;;
19645;SDS011;9971;52.446;13.452;2023-07-22T11:25:23;3.50;;;3.20;;
19645;SDS011;9971;52.446;13.452;2023-07-22T11:30:25;3.43;;;3.13;;
19645;SDS011;9971;52.446;13.452;2023-07-22T11:35:27;3.27;;;3.00;;
19645;SDS011;9971;52.446;13.452;2023-07-22T11:40:33;3.40;;;2.70;;
19645;SDS011;9971;52.446;13.452;2023-07-22T11:45:37;3.10;;;2.70;;
19645;SDS011;9971;52.446;13.452;2023-07-22T11:50:42;2.80;;;2.60;;
19645;SDS011;9971;52.446;13.452;2023-07-22T11:55:45;2.80;;;2.52;;
19645;SDS011;9971;52.446;13.452;2023-07-22T12:00:47;3.25;;;3.05;;
19645;SDS011;9971;52.446;13.452;2023-07-22T12:05:51;3.33;;;3.03;;
19645;SDS011;9971;52.446;13.452;2023-07-22T12:10:57;3.42;;;3.12;;
19645;SDS011;9971;52.446;13.452;2023-07-22T12:16:00;3.33;;;3.13;;
19645;SDS011;9971;52.446;13.452;2023-07-22T12:21:03;4.23;;;2.80;;
19645;SDS011;9971;52.446;13.452;2023-07-22T12:26:04;4.47;;;3.05;;
19645;SDS011;9971;52.446;13.452;2023-07-22T12:31:06;3.20;;;3.00;;
19645;SDS011;9971;52.446;13.452;2023-07-22T12:36:09;3.22;;;2.90;;
19645;SDS011;9971;52.446;13.452;2023-07-22T12:41:13;3.25;;;3.02;;
19645;SDS011;9971;52.446;13.452;2023-07-22T12:46:23;3.22;;;2.98;;
19645;SDS011;9971;52.446;13.452;2023-07-22T12:51:40;5.20;;;3.00;;
19645;SDS011;9971;52.446;13.452;2023-07-22T12:56:48;3.13;;;2.93;;
19645;SDS011;9971;52.446;13.452;2023-07-22T13:01:51;2.93;;;2.73;;
19645;SDS011;9971;52.446;13.452;2023-07-22T13:06:53;3.58;;;3.27;;
19645;SDS011;9971;52.446;13.452;2023-07-22T13:11:56;3.22;;;2.92;;
19645;SDS011;9971;52.446;13.452;2023-07-22T13:16:58;3.25;;;3.05;;
19645;SDS011;9971;52.446;13.452;2023-07-22T13:22:01;3.50;;;3.20;;
19645;SDS011;9971;52.446;13.452;2023-07-22T13:27:04;3.05;;;2.85;;
19645;SDS011;9971;52.446;13.452;2023-07-22T13:32:07;3.27;;;2.87;;
19645;SDS011;9971;52.446;13.452;2023-07-22T13:37:10;3.77;;;3.47;;
19645;SDS011;9971;52.446;13.452;2023-07-22T13:42:14;3.57;;;3.07;;
19645;SDS011;9971;52.446;13.452;2023-07-22T13:47:17;3.83;;;3.30;;
19645;SDS011;9971;52.446;13.452;2023-07-22T13:52:20;3.40;;;3.10;;
19645;SDS011;9971;52.446;13.452;2023-07-22T13:57:25;2.67;;;2.47;;
19645;SDS011;9971;52.446;13.452;2023-07-22T14:02:28;3.33;;;3.12;;
19645;SDS011;9971;52.446;13.452;2023-07-22T14:07:31;3.03;;;2.80;;
19645;SDS011;9971;52.446;13.452;2023-07-22T14:12:34;3.35;;;3.05;;
19645;SDS011;9971;52.446;13.452;2023-07-22T14:17:36;2.70;;;2.50;;
19645;SDS011;9971;52.446;13.452;2023-07-22T14:22:38;4.17;;;2.75;;
19645;SDS011;9971;52.446;13.452;2023-07-22T14:27:41;2.87;;;2.67;;
19645;SDS011;9971;52.446;13.452;2023-07-22T14:32:44;2.60;;;2.40;;
19645;SDS011;9971;52.446;13.452;2023-07-22T14:37:47;3.22;;;2.92;;
19645;SDS011;9971;52.446;13.452;2023-07-22T14:42:50;3.25;;;3.02;;
19645;SDS011;9971;52.446;13.452;2023-07-22T14:47:55;3.02;;;2.83;;
19645;SDS011;9971;52.446;13.452;2023-07-22T14:52:58;2.83;;;2.63;;
19645;SDS011;9971;52.446;13.452;2023-07-22T14:58:01;2.87;;;2.62;;
19645;SDS011;9971;52.446;13.452;2023-07-22T15:03:04;3.07;;;2.80;;
19645;SDS011;9971;52.446;13.452;2023-07-22T15:08:08;3.13;;;2.67;;
19645;SDS011;9971;52.446;13.452;2023-07-22T15:13:10;3.53;;;3.27;;
19645;SDS011;9971;52.446;13.452;2023-07-22T15:18:14;3.33;;;3.10;;
19645;SDS011;9971;52.446;13.452;2023-07-22T15:23:16;3.92;;;3.00;;
19645;SDS011;9971;52.446;13.452;2023-07-22T15:28:19;3.10;;;2.80;;
19645;SDS011;9971;52.446;13.452;2023-07-22T15:33:22;3.47;;;3.27;;
19645;SDS011;9971;52.446;13.452;2023-07-22T15:38:24;3.80;;;3.25;;
19645;SDS011;9971;52.446;13.452;2023-07-22T15:43:27;3.72;;;3.20;;
19645;SDS011;9971;52.446;13.452;2023-07-22T15:48:30;2.87;;;2.67;;
19645;SDS011;9971;52.446;13.452;2023-07-22T15:53:32;2.98;;;2.77;;
19645;SDS011;9971;52.446;13.452;2023-07-22T15:58:34;3.37;;;3.17;;
19645;SDS011;9971;52.446;13.452;2023-07-22T16:03:37;3.45;;;3.17;;
19645;SDS011;9971;52.446;13.452;2023-07-22T16:08:39;3.10;;;2.83;;
19645;SDS011;9971;52.446;13.452;2023-07-22T16:13:42;3.02;;;2.83;;
19645;SDS011;9971;52.446;13.452;2023-07-22T16:18:46;3.07;;;2.87;;
19645;SDS011;9971;52.446;13.452;2023-07-22T16:23:48;3.05;;;2.85;;
19645;SDS011;9971;52.446;13.452;2023-07-22T16:28:51;3.05;;;2.85;;
19645;SDS011;9971;52.446;13.452;2023-07-22T16:33:54;3.95;;;2.87;;
19645;SDS011;9971;52.446;13.452;2023-07-22T16:38:56;3.27;;;3.08;;
19645;SDS011;9971;52.446;13.452;2023-07-22T16:43:59;3.42;;;3.05;;
19645;SDS011;9971;52.446;13.452;2023-07-22T16:49:01;3.60;;;2.77;;
19645;SDS011;9971;52.446;13.452;2023-07-22T16:54:04;2.95;;;2.75;;
19645;SDS011;9971;52.446;13.452;2023-07-22T16:59:06;3.17;;;2.90;;
19645;SDS011;9971;52.446;13.452;2023-07-22T17:04:09;3.40;;;3.10;;
19645;SDS011;9971;52.446;13.452;2023-07-22T17:09:11;3.17;;;2.92;;
19645;SDS011;9971;52.446;13.452;2023-07-22T17:14:13;3.08;;;2.75;;
19645;SDS011;9971;52.446;13.452;2023-07-22T17:19:16;3.37;;;3.08;;
19645;SDS011;9971;52.446;13.452;2023-07-22T17:24:19;3.40;;;3.20;;
19645;SDS011;9971;52.446;13.452;2023-07-22T17:29:21;2.98;;;2.60;;
19645;SDS011;9971;52.446;13.452;2023-07-22T17:34:23;3.00;;;2.77;;
19645;SDS011;9971;52.446;13.452;2023-07-22T17:39:26;8.75;;;7.83;;
19645;SDS011;9971;52.446;13.452;2023-07-22T17:44:28;5.67;;;4.90;;
19645;SDS011;9971;52.446;13.452;2023-07-22T17:49:31;3.90;;;3.50;;
19645;SDS011;9971;52.446;13.452;2023-07-22T17:54:33;3.25;;;2.95;;
19645;SDS011;9971;52.446;13.452;2023-07-22T17:59:36;3.08;;;2.77;;
19645;SDS011;9971;52.446;13.452;2023-07-22T18:04:38;2.85;;;2.65;;
19645;SDS011;9971;52.446;13.452;2023-07-22T18:09:41;2.90;;;2.42;;
19645;SDS011;9971;52.446;13.452;2023-07-22T18:14:43;3.22;;;3.00;;
19645;SDS011;9971;52.446;13.452;2023-07-22T18:19:46;2.77;;;2.52;;
19645;SDS011;9971;52.446;13.452;2023-07-22T18:24:48;2.90;;;2.70;;
19645;SDS011;9971;52.446;13.452;2023-07-22T18:29:50;3.30;;;3.03;;
19645;SDS011;9971;52.446;13.452;2023-07-22T18:34:53;4.53;;;3.12;;
19645;SDS011;9971;52.446;13.452;2023-07-22T18:39:56;4.10;;;3.17;;
19645;SDS011;9971;52.446;13.452;2023-07-22T18:44:59;2.97;;;2.67;;
19645;SDS011;9971;52.446;13.452;2023-07-22T18:50:01;3.62;;;3.33;;
19645;SDS011;9971;52.446;13.452;2023-07-22T18:55:04;3.30;;;3.00;;
19645;SDS011;9971;52.446;13.452;2023-07-22T19:00:07;5.50;;;4.00;;
19645;SDS011;9971;52.446;13.452;2023-07-22T19:05:10;3.23;;;2.93;;
19645;SDS011;9971;52.446;13.452;2023-07-22T19:10:12;3.77;;;3.45;;
19645;SDS011;9971;52.446;13.452;2023-07-22T19:15:15;4.30;;;3.90;;
19645;SDS011;9971;52.446;13.452;2023-07-22T19:20:17;4.75;;;4.35;;
19645;SDS011;9971;52.446;13.452;2023-07-22T19:25:20;4.47;;;4.08;;
19645;SDS011;9971;52.446;13.452;2023-07-22T19:30:24;5.57;;;5.07;;
19645;SDS011;9971;52.446;13.452;2023-07-22T19:35:27;5.73;;;5.23;;
19645;SDS011;9971;52.446;13.452;2023-07-22T19:40:30;5.05;;;4.58;;
19645;SDS011;9971;52.446;13.452;2023-07-22T19:45:32;5.75;;;4.90;;
19645;SDS011;9971;52.446;13.452;2023-07-22T19:50:34;6.72;;;4.33;;
19645;SDS011;9971;52.446;13.452;2023-07-22T19:55:37;5.15;;;4.65;;
19645;SDS011;9971;52.446;13.452;2023-07-22T20:00:39;5.17;;;4.67;;
19645;SDS011;9971;52.446;13.452;2023-07-22T20:05:42;4.70;;;4.17;;
19645;SDS011;9971;52.446;13.452;2023-07-22T20:10:46;4.17;;;3.77;;
19645;SDS011;9971;52.446;13.452;2023-07-22T20:15:50;3.80;;;3.50;;
19645;SDS011;9971;52.446;13.452;2023-07-22T20:20:52;4.25;;;3.85;;
19645;SDS011;9971;52.446;13.452;2023-07-22T20:25:54;5.93;;;3.97;;
19645;SDS011;9971;52.446;13.452;2023-07-22T20:30:56;4.00;;;3.60;;
19645;SDS011;9971;52.446;13.452;2023-07-22T20:35:59;3.95;;;3.65;;
19645;SDS011;9971;52.446;13.452;2023-07-22T20:41:04;4.05;;;3.62;;
19645;SDS011;9971;52.446;13.452;2023-07-22T20:46:06;4.20;;;3.80;;
19645;SDS011;9971;52.446;13.452;2023-07-22T20:51:08;4.70;;;4.20;;
19645;SDS011;9971;52.446;13.452;2023-07-22T20:56:11;4.15;;;3.85;;
19645;SDS011;9971;52.446;13.452;2023-07-22T21:01:13;4.53;;;4.12;;
19645;SDS011;9971;52.446;13.452;2023-07-22T21:06:16;4.97;;;4.00;;
19645;SDS011;9971;52.446;13.452;2023-07-22T21:11:19;4.72;;;4.37;;
19645;SDS011;9971;52.446;13.452;2023-07-22T21:16:21;5.53;;;4.70;;
19645;SDS011;9971;52.446;13.452;2023-07-22T21:21:24;5.12;;;4.65;;
19645;SDS011;9971;52.446;13.452;2023-07-22T21:26:26;4.75;;;4.22;;
19645;SDS011;9971;52.446;13.452;2023-07-22T21:31:30;5.13;;;4.27;;
19645;SDS011;9971;52.446;13.452;2023-07-22T21:36:32;4.17;;;3.83;;
19645;SDS011;9971;52.446;13.452;2023-07-22T21:41:35;4.80;;;4.28;;
19645;SDS011;9971;52.446;13.452;2023-07-22T21:46:38;3.67;;;3.37;;
19645;SDS011;9971;52.446;13.452;2023-07-22T21:51:41;4.23;;;3.93;;
19645;SDS011;9971;52.446;13.452;2023-07-22T21:56:43;4.80;;;4.40;;
19645;SDS011;9971;52.446;13.452;2023-07-22T22:01:46;4.90;;;4.50;;
19645;SDS011;9971;52.446;13.452;2023-07-22T22:06:48;4.45;;;4.05;;
19645;SDS011;9971;52.446;13.452;2023-07-22T22:11:50;4.95;;;4.55;;
19645;SDS011;9971;52.446;13.452;2023-07-22T22:16:53;4.47;;;4.08;;
19645;SDS011;9971;52.446;13.452;2023-07-22T22:21:55;4.50;;;4.00;;
19645;SDS011;9971;52.446;13.452;2023-07-22T22:26:58;4.55;;;4.15;;
19645;SDS011;9971;52.446;13.452;2023-07-22T22:32:00;4.33;;;4.03;;
19645;SDS011;9971;52.446;13.452;2023-07-22T22:37:03;4.90;;;4.45;;
19645;SDS011;9971;52.446;13.452;2023-07-22T22:42:07;4.50;;;4.12;;
19645;SDS011;9971;52.446;13.452;2023-07-22T22:47:09;4.37;;;3.97;;
19645;SDS011;9971;52.446;13.452;2023-07-22T22:52:12;4.35;;;3.95;;
19645;SDS011;9971;52.446;13.452;2023-07-22T22:57:15;5.30;;;3.95;;
19645;SDS011;9971;52.446;13.452;2023-07-22T23:02:19;3.87;;;3.57;;
19645;SDS011;9971;52.446;13.452;2023-07-22T23:07:22;3.72;;;3.42;;
19645;SDS011;9971;52.446;13.452;2023-07-22T23:12:24;4.22;;;3.92;;
19645;SDS011;9971;52.446;13.452;2023-07-22T23:17:27;4.45;;;4.15;;
19645;SDS011;9971;52.446;13.452;2023-07-22T23:22:31;4.05;;;3.67;;
19645;SDS011;9971;52.446;13.452;2023-07-22T23:27:37;4.37;;;3.97;;
19645;SDS011;9971;52.446;13.452;2023-07-22T23:32:39;4.20;;;3.80;;
19645;SDS011;9971;52.446;13.452;2023-07-22T23:37:44;4.40;;;4.00;;
19645;SDS011;9971;52.446;13.452;2023-07-22T23:42:46;4.33;;;3.93;;
19645;SDS011;9971;52.446;13.452;2023-07-22T23:47:48;4.87;;;4.47;;
19645;SDS011;9971;52.446;13.452;2023-07-22T23:52:51;4.08;;;3.75;;
19645;SDS011;9971;52.446;13.452;2023-07-22T23:57:55;4.50;;;4.00;;
